sensor_id;sensor_type;location;lat;lon;timestamp;P1;durP1;ratioP1;P2;durP2;ratioP2
17422;SDS011;8829;47.932;7.810;2022-08-07T00:01:54;3.93;;;2.10;;
17422;SDS011;8829;47.932;7.810;2022-08-07T00:04:21;1.50;;;1.50;;
17422;SDS011;8829;47.932;7.810;2022-08-07T00:06:49;2.33;;;2.10;;
17422;SDS011;8829;47.932;7.810;2022-08-07T00:09:16;2.80;;;2.37;;
17422;SDS011;8829;47.932;7.810;2022-08-07T00:11:43;3.47;;;2.27;;
17422;SDS011;8829;47.932;7.810;2022-08-07T00:14:10;4.07;;;2.03;;
17422;SDS011;8829;47.932;7.810;2022-08-07T00:16:37;2.57;;;2.03;;
17422;SDS011;8829;47.932;7.810;2022-08-07T00:19:04;5.63;;;2.20;;
17422;SDS011;8829;47.932;7.810;2022-08-07T00:21:30;3.27;;;1.63;;
17422;SDS011;8829;47.932;7.810;2022-08-07T00:23:59;2.53;;;2.33;;
17422;SDS011;8829;47.932;7.810;2022-08-07T00:26:26;2.30;;;2.20;;
17422;SDS011;8829;47.932;7.810;2022-08-07T00:28:52;2.57;;;2.37;;
17422;SDS011;8829;47.932;7.810;2022-08-07T00:31:19;2.13;;;1.93;;
17422;SDS011;8829;47.932;7.810;2022-08-07T00:33:46;2.67;;;2.07;;
17422;SDS011;8829;47.932;7.810;2022-08-07T00:36:13;2.60;;;2.10;;
17422;SDS011;8829;47.932;7.810;2022-08-07T00:38:40;2.43;;;2.23;;
17422;SDS011;8829;47.932;7.810;2022-08-07T00:41:08;2.13;;;2.03;;
17422;SDS011;8829;47.932;7.810;2022-08-07T00:43:36;2.43;;;2.23;;
17422;SDS011;8829;47.932;7.810;2022-08-07T00:46:02;2.27;;;2.17;;
17422;SDS011;8829;47.932;7.810;2022-08-07T00:48:29;2.50;;;2.00;;
17422;SDS011;8829;47.932;7.810;2022-08-07T00:50:56;5.23;;;2.20;;
17422;SDS011;8829;47.932;7.810;2022-08-07T00:53:24;2.53;;;2.30;;
17422;SDS011;8829;47.932;7.810;2022-08-07T00:55:51;2.00;;;1.90;;
17422;SDS011;8829;47.932;7.810;2022-08-07T00:58:20;9.07;;;2.37;;
17422;SDS011;8829;47.932;7.810;2022-08-07T01:00:47;3.50;;;1.90;;
17422;SDS011;8829;47.932;7.810;2022-08-07T01:03:14;2.00;;;1.90;;
17422;SDS011;8829;47.932;7.810;2022-08-07T01:05:41;5.27;;;2.03;;
17422;SDS011;8829;47.932;7.810;2022-08-07T01:08:11;2.30;;;2.10;;
17422;SDS011;8829;47.932;7.810;2022-08-07T01:10:38;2.20;;;2.07;;
17422;SDS011;8829;47.932;7.810;2022-08-07T01:13:06;3.33;;;2.07;;
17422;SDS011;8829;47.932;7.810;2022-08-07T01:15:35;2.40;;;2.10;;
17422;SDS011;8829;47.932;7.810;2022-08-07T01:18:02;2.17;;;2.07;;
17422;SDS011;8829;47.932;7.810;2022-08-07T01:20:30;2.30;;;2.20;;
17422;SDS011;8829;47.932;7.810;2022-08-07T01:23:01;2.27;;;2.07;;
17422;SDS011;8829;47.932;7.810;2022-08-07T01:25:30;3.03;;;2.17;;
17422;SDS011;8829;47.932;7.810;2022-08-07T01:27:57;2.00;;;1.90;;
17422;SDS011;8829;47.932;7.810;2022-08-07T01:30:24;1.97;;;1.87;;
17422;SDS011;8829;47.932;7.810;2022-08-07T01:32:52;3.73;;;2.10;;
17422;SDS011;8829;47.932;7.810;2022-08-07T01:35:19;2.87;;;2.00;;
17422;SDS011;8829;47.932;7.810;2022-08-07T01:37:46;2.03;;;1.80;;
17422;SDS011;8829;47.932;7.810;2022-08-07T01:40:16;2.30;;;2.10;;
17422;SDS011;8829;47.932;7.810;2022-08-07T01:42:45;3.33;;;2.00;;
17422;SDS011;8829;47.932;7.810;2022-08-07T01:45:12;2.07;;;1.97;;
17422;SDS011;8829;47.932;7.810;2022-08-07T01:47:40;3.53;;;2.07;;
17422;SDS011;8829;47.932;7.810;2022-08-07T01:50:07;2.23;;;1.80;;
17422;SDS011;8829;47.932;7.810;2022-08-07T01:52:34;2.30;;;2.10;;
17422;SDS011;8829;47.932;7.810;2022-08-07T01:55:03;2.20;;;1.77;;
17422;SDS011;8829;47.932;7.810;2022-08-07T01:57:33;2.60;;;2.23;;
17422;SDS011;8829;47.932;7.810;2022-08-07T02:00:05;6.10;;;1.90;;
17422;SDS011;8829;47.932;7.810;2022-08-07T02:02:36;2.20;;;2.00;;
17422;SDS011;8829;47.932;7.810;2022-08-07T02:05:08;2.20;;;2.00;;
17422;SDS011;8829;47.932;7.810;2022-08-07T02:07:38;2.10;;;1.90;;
17422;SDS011;8829;47.932;7.810;2022-08-07T02:10:08;1.87;;;1.77;;
17422;SDS011;8829;47.932;7.810;2022-08-07T02:12:39;2.27;;;2.10;;
17422;SDS011;8829;47.932;7.810;2022-08-07T02:15:08;2.53;;;2.43;;
17422;SDS011;8829;47.932;7.810;2022-08-07T02:17:36;2.20;;;2.00;;
17422;SDS011;8829;47.932;7.810;2022-08-07T02:20:06;2.43;;;2.23;;
17422;SDS011;8829;47.932;7.810;2022-08-07T02:22:35;2.40;;;2.30;;
17422;SDS011;8829;47.932;7.810;2022-08-07T02:25:04;2.23;;;2.00;;
17422;SDS011;8829;47.932;7.810;2022-08-07T02:27:31;2.13;;;2.03;;
17422;SDS011;8829;47.932;7.810;2022-08-07T02:30:01;2.00;;;1.90;;
17422;SDS011;8829;47.932;7.810;2022-08-07T02:32:29;1.97;;;1.87;;
17422;SDS011;8829;47.932;7.810;2022-08-07T02:35:00;2.23;;;1.83;;
17422;SDS011;8829;47.932;7.810;2022-08-07T02:37:28;3.03;;;2.30;;
17422;SDS011;8829;47.932;7.810;2022-08-07T02:39:56;2.77;;;2.20;;
17422;SDS011;8829;47.932;7.810;2022-08-07T02:42:25;2.70;;;2.30;;
17422;SDS011;8829;47.932;7.810;2022-08-07T02:44:53;2.13;;;1.93;;
17422;SDS011;8829;47.932;7.810;2022-08-07T02:47:23;2.03;;;1.93;;
17422;SDS011;8829;47.932;7.810;2022-08-07T02:49:50;2.57;;;2.20;;
17422;SDS011;8829;47.932;7.810;2022-08-07T02:52:18;2.60;;;2.30;;
17422;SDS011;8829;47.932;7.810;2022-08-07T02:54:49;2.40;;;2.20;;
17422;SDS011;8829;47.932;7.810;2022-08-07T02:57:17;2.90;;;2.10;;
17422;SDS011;8829;47.932;7.810;2022-08-07T02:59:45;2.53;;;2.33;;
17422;SDS011;8829;47.932;7.810;2022-08-07T03:02:14;2.10;;;2.00;;
17422;SDS011;8829;47.932;7.810;2022-08-07T03:04:43;2.10;;;2.00;;
17422;SDS011;8829;47.932;7.810;2022-08-07T03:07:11;2.30;;;2.20;;
17422;SDS011;8829;47.932;7.810;2022-08-07T03:09:39;3.33;;;2.07;;
17422;SDS011;8829;47.932;7.810;2022-08-07T03:12:07;2.10;;;2.00;;
17422;SDS011;8829;47.932;7.810;2022-08-07T03:14:35;2.77;;;2.20;;
17422;SDS011;8829;47.932;7.810;2022-08-07T03:17:03;2.70;;;1.63;;
17422;SDS011;8829;47.932;7.810;2022-08-07T03:19:31;2.50;;;1.43;;
17422;SDS011;8829;47.932;7.810;2022-08-07T03:22:00;1.40;;;1.30;;
17422;SDS011;8829;47.932;7.810;2022-08-07T03:24:29;1.80;;;1.70;;
17422;SDS011;8829;47.932;7.810;2022-08-07T03:26:57;2.10;;;2.00;;
17422;SDS011;8829;47.932;7.810;2022-08-07T03:29:27;1.80;;;1.70;;
17422;SDS011;8829;47.932;7.810;2022-08-07T03:31:59;1.73;;;1.63;;
17422;SDS011;8829;47.932;7.810;2022-08-07T03:34:28;1.83;;;1.73;;
17422;SDS011;8829;47.932;7.810;2022-08-07T03:36:58;2.63;;;2.03;;
17422;SDS011;8829;47.932;7.810;2022-08-07T03:39:28;2.33;;;2.23;;
17422;SDS011;8829;47.932;7.810;2022-08-07T03:41:58;2.10;;;2.00;;
17422;SDS011;8829;47.932;7.810;2022-08-07T03:44:26;3.63;;;2.10;;
17422;SDS011;8829;47.932;7.810;2022-08-07T03:46:54;2.30;;;2.20;;
17422;SDS011;8829;47.932;7.810;2022-08-07T03:49:21;1.83;;;1.60;;
17422;SDS011;8829;47.932;7.810;2022-08-07T03:51:48;1.97;;;1.83;;
17422;SDS011;8829;47.932;7.810;2022-08-07T03:54:16;3.10;;;2.60;;
17422;SDS011;8829;47.932;7.810;2022-08-07T03:56:44;2.63;;;2.03;;
17422;SDS011;8829;47.932;7.810;2022-08-07T03:59:12;2.33;;;2.23;;
17422;SDS011;8829;47.932;7.810;2022-08-07T04:01:40;3.37;;;2.00;;
17422;SDS011;8829;47.932;7.810;2022-08-07T04:04:08;2.10;;;2.00;;
17422;SDS011;8829;47.932;7.810;2022-08-07T04:06:35;3.07;;;2.03;;
17422;SDS011;8829;47.932;7.810;2022-08-07T04:09:04;2.40;;;2.30;;
17422;SDS011;8829;47.932;7.810;2022-08-07T04:11:32;2.93;;;2.63;;
17422;SDS011;8829;47.932;7.810;2022-08-07T04:14:01;2.50;;;2.30;;
17422;SDS011;8829;47.932;7.810;2022-08-07T04:16:28;7.03;;;2.20;;
17422;SDS011;8829;47.932;7.810;2022-08-07T04:18:55;3.87;;;2.83;;
17422;SDS011;8829;47.932;7.810;2022-08-07T04:21:22;4.03;;;2.30;;
17422;SDS011;8829;47.932;7.810;2022-08-07T04:23:49;3.30;;;2.57;;
17422;SDS011;8829;47.932;7.810;2022-08-07T04:26:17;1.67;;;1.57;;
17422;SDS011;8829;47.932;7.810;2022-08-07T04:28:44;1.97;;;1.70;;
17422;SDS011;8829;47.932;7.810;2022-08-07T04:31:12;1.40;;;1.37;;
17422;SDS011;8829;47.932;7.810;2022-08-07T04:33:39;5.80;;;2.40;;
17422;SDS011;8829;47.932;7.810;2022-08-07T04:36:06;3.07;;;1.90;;
17422;SDS011;8829;47.932;7.810;2022-08-07T04:38:34;2.80;;;1.70;;
17422;SDS011;8829;47.932;7.810;2022-08-07T04:41:02;1.43;;;1.43;;
17422;SDS011;8829;47.932;7.810;2022-08-07T04:43:29;1.67;;;1.57;;
17422;SDS011;8829;47.932;7.810;2022-08-07T04:46:00;3.07;;;1.23;;
17422;SDS011;8829;47.932;7.810;2022-08-07T04:48:36;2.40;;;1.87;;
17422;SDS011;8829;47.932;7.810;2022-08-07T04:51:10;1.60;;;1.50;;
17422;SDS011;8829;47.932;7.810;2022-08-07T04:53:45;1.80;;;1.70;;
17422;SDS011;8829;47.932;7.810;2022-08-07T04:56:19;2.30;;;2.10;;
17422;SDS011;8829;47.932;7.810;2022-08-07T04:58:55;3.67;;;2.13;;
17422;SDS011;8829;47.932;7.810;2022-08-07T05:01:30;2.40;;;1.43;;
17422;SDS011;8829;47.932;7.810;2022-08-07T05:04:07;2.07;;;1.10;;
17422;SDS011;8829;47.932;7.810;2022-08-07T05:06:40;1.63;;;1.53;;
17422;SDS011;8829;47.932;7.810;2022-08-07T05:09:16;1.70;;;1.60;;
17422;SDS011;8829;47.932;7.810;2022-08-07T05:11:50;1.60;;;1.47;;
17422;SDS011;8829;47.932;7.810;2022-08-07T05:14:19;2.03;;;1.93;;
17422;SDS011;8829;47.932;7.810;2022-08-07T05:16:52;2.70;;;2.00;;
17422;SDS011;8829;47.932;7.810;2022-08-07T05:19:25;1.77;;;1.53;;
17422;SDS011;8829;47.932;7.810;2022-08-07T05:21:57;2.43;;;1.40;;
17422;SDS011;8829;47.932;7.810;2022-08-07T05:24:27;1.63;;;1.53;;
17422;SDS011;8829;47.932;7.810;2022-08-07T05:26:57;1.90;;;1.60;;
17422;SDS011;8829;47.932;7.810;2022-08-07T05:29:24;2.10;;;2.00;;
17422;SDS011;8829;47.932;7.810;2022-08-07T05:31:53;2.23;;;1.50;;
17422;SDS011;8829;47.932;7.810;2022-08-07T05:34:21;1.23;;;0.90;;
17422;SDS011;8829;47.932;7.810;2022-08-07T05:36:52;2.30;;;1.47;;
17422;SDS011;8829;47.932;7.810;2022-08-07T05:39:21;2.93;;;1.07;;
17422;SDS011;8829;47.932;7.810;2022-08-07T05:41:48;8.80;;;1.30;;
17422;SDS011;8829;47.932;7.810;2022-08-07T05:44:17;0.90;;;0.90;;
17422;SDS011;8829;47.932;7.810;2022-08-07T05:46:45;1.27;;;1.00;;
17422;SDS011;8829;47.932;7.810;2022-08-07T05:49:13;1.27;;;0.90;;
17422;SDS011;8829;47.932;7.810;2022-08-07T05:51:40;1.37;;;1.27;;
17422;SDS011;8829;47.932;7.810;2022-08-07T05:54:09;1.17;;;1.07;;
17422;SDS011;8829;47.932;7.810;2022-08-07T05:56:37;1.17;;;0.80;;
17422;SDS011;8829;47.932;7.810;2022-08-07T05:59:05;1.77;;;0.97;;
17422;SDS011;8829;47.932;7.810;2022-08-07T06:01:38;1.10;;;1.07;;
17422;SDS011;8829;47.932;7.810;2022-08-07T06:04:07;2.10;;;1.13;;
17422;SDS011;8829;47.932;7.810;2022-08-07T06:06:35;3.70;;;1.17;;
17422;SDS011;8829;47.932;7.810;2022-08-07T06:09:02;2.17;;;1.03;;
17422;SDS011;8829;47.932;7.810;2022-08-07T06:11:31;1.30;;;0.93;;
17422;SDS011;8829;47.932;7.810;2022-08-07T06:13:58;1.47;;;0.90;;
17422;SDS011;8829;47.932;7.810;2022-08-07T06:16:26;1.00;;;1.00;;
17422;SDS011;8829;47.932;7.810;2022-08-07T06:18:57;1.47;;;1.00;;
17422;SDS011;8829;47.932;7.810;2022-08-07T06:21:25;1.40;;;1.07;;
17422;SDS011;8829;47.932;7.810;2022-08-07T06:23:53;3.00;;;1.13;;
17422;SDS011;8829;47.932;7.810;2022-08-07T06:26:20;6.43;;;1.10;;
17422;SDS011;8829;47.932;7.810;2022-08-07T06:28:49;1.43;;;1.30;;
17422;SDS011;8829;47.932;7.810;2022-08-07T06:31:16;1.13;;;0.90;;
17422;SDS011;8829;47.932;7.810;2022-08-07T06:33:43;1.53;;;1.03;;
17422;SDS011;8829;47.932;7.810;2022-08-07T06:36:11;0.83;;;0.83;;
17422;SDS011;8829;47.932;7.810;2022-08-07T06:38:38;1.77;;;1.00;;
17422;SDS011;8829;47.932;7.810;2022-08-07T06:41:07;0.90;;;0.90;;
17422;SDS011;8829;47.932;7.810;2022-08-07T06:43:37;0.83;;;0.83;;
17422;SDS011;8829;47.932;7.810;2022-08-07T06:46:08;1.53;;;0.90;;
17422;SDS011;8829;47.932;7.810;2022-08-07T06:48:35;1.67;;;0.70;;
17422;SDS011;8829;47.932;7.810;2022-08-07T06:51:03;0.70;;;0.70;;
17422;SDS011;8829;47.932;7.810;2022-08-07T06:53:32;3.03;;;1.20;;
17422;SDS011;8829;47.932;7.810;2022-08-07T06:56:01;1.47;;;1.03;;
17422;SDS011;8829;47.932;7.810;2022-08-07T06:58:29;0.70;;;0.70;;
17422;SDS011;8829;47.932;7.810;2022-08-07T07:00:59;1.20;;;1.10;;
17422;SDS011;8829;47.932;7.810;2022-08-07T07:03:28;2.03;;;1.20;;
17422;SDS011;8829;47.932;7.810;2022-08-07T07:05:56;0.90;;;0.90;;
17422;SDS011;8829;47.932;7.810;2022-08-07T07:08:24;1.20;;;1.00;;
17422;SDS011;8829;47.932;7.810;2022-08-07T07:10:51;3.23;;;0.97;;
17422;SDS011;8829;47.932;7.810;2022-08-07T07:13:21;0.70;;;0.70;;
17422;SDS011;8829;47.932;7.810;2022-08-07T07:15:54;1.20;;;1.10;;
17422;SDS011;8829;47.932;7.810;2022-08-07T07:18:29;1.47;;;1.00;;
17422;SDS011;8829;47.932;7.810;2022-08-07T07:21:05;1.67;;;0.97;;
17422;SDS011;8829;47.932;7.810;2022-08-07T07:23:36;2.83;;;1.00;;
17422;SDS011;8829;47.932;7.810;2022-08-07T07:26:04;1.20;;;1.13;;
17422;SDS011;8829;47.932;7.810;2022-08-07T07:28:36;2.93;;;1.00;;
17422;SDS011;8829;47.932;7.810;2022-08-07T07:31:09;1.20;;;1.10;;
17422;SDS011;8829;47.932;7.810;2022-08-07T07:33:42;1.03;;;0.93;;
17422;SDS011;8829;47.932;7.810;2022-08-07T07:36:11;0.83;;;0.83;;
17422;SDS011;8829;47.932;7.810;2022-08-07T07:38:38;2.70;;;1.00;;
17422;SDS011;8829;47.932;7.810;2022-08-07T07:41:07;1.73;;;1.23;;
17422;SDS011;8829;47.932;7.810;2022-08-07T07:43:38;1.70;;;1.10;;
17422;SDS011;8829;47.932;7.810;2022-08-07T07:46:08;2.57;;;1.10;;
17422;SDS011;8829;47.932;7.810;2022-08-07T07:48:36;0.83;;;0.83;;
17422;SDS011;8829;47.932;7.810;2022-08-07T07:51:06;1.17;;;0.90;;
17422;SDS011;8829;47.932;7.810;2022-08-07T07:53:36;2.50;;;1.10;;
17422;SDS011;8829;47.932;7.810;2022-08-07T07:56:04;1.03;;;0.93;;
17422;SDS011;8829;47.932;7.810;2022-08-07T07:58:34;3.97;;;1.10;;
17422;SDS011;8829;47.932;7.810;2022-08-07T08:01:03;1.33;;;1.23;;
17422;SDS011;8829;47.932;7.810;2022-08-07T08:03:31;3.63;;;1.20;;
17422;SDS011;8829;47.932;7.810;2022-08-07T08:06:00;2.00;;;1.27;;
17422;SDS011;8829;47.932;7.810;2022-08-07T08:08:30;0.90;;;0.90;;
17422;SDS011;8829;47.932;7.810;2022-08-07T08:10:59;1.20;;;1.10;;
17422;SDS011;8829;47.932;7.810;2022-08-07T08:13:28;1.43;;;1.00;;
17422;SDS011;8829;47.932;7.810;2022-08-07T08:15:56;0.83;;;0.83;;
17422;SDS011;8829;47.932;7.810;2022-08-07T08:18:27;5.03;;;1.20;;
17422;SDS011;8829;47.932;7.810;2022-08-07T08:20:54;0.93;;;0.93;;
17422;SDS011;8829;47.932;7.810;2022-08-07T08:23:25;0.90;;;0.90;;
17422;SDS011;8829;47.932;7.810;2022-08-07T08:26:14;1.50;;;1.10;;
17422;SDS011;8829;47.932;7.810;2022-08-07T08:28:59;1.60;;;1.00;;
17422;SDS011;8829;47.932;7.810;2022-08-07T08:31:28;1.40;;;1.30;;
17422;SDS011;8829;47.932;7.810;2022-08-07T08:34:00;0.93;;;0.93;;
17422;SDS011;8829;47.932;7.810;2022-08-07T08:36:29;2.03;;;1.00;;
17422;SDS011;8829;47.932;7.810;2022-08-07T08:38:58;1.10;;;1.00;;
17422;SDS011;8829;47.932;7.810;2022-08-07T08:41:30;0.90;;;0.90;;
17422;SDS011;8829;47.932;7.810;2022-08-07T08:44:06;1.30;;;1.20;;
17422;SDS011;8829;47.932;7.810;2022-08-07T08:46:41;1.80;;;1.00;;
17422;SDS011;8829;47.932;7.810;2022-08-07T08:49:16;1.40;;;1.23;;
17422;SDS011;8829;47.932;7.810;2022-08-07T08:51:51;0.90;;;0.90;;
17422;SDS011;8829;47.932;7.810;2022-08-07T08:54:23;1.30;;;1.20;;
17422;SDS011;8829;47.932;7.810;2022-08-07T08:56:56;1.10;;;0.90;;
17422;SDS011;8829;47.932;7.810;2022-08-07T08:59:28;1.93;;;1.43;;
17422;SDS011;8829;47.932;7.810;2022-08-07T09:02:04;1.30;;;1.20;;
17422;SDS011;8829;47.932;7.810;2022-08-07T09:04:40;2.43;;;1.10;;
17422;SDS011;8829;47.932;7.810;2022-08-07T09:07:14;1.63;;;1.53;;
17422;SDS011;8829;47.932;7.810;2022-08-07T09:09:50;5.20;;;1.00;;
17422;SDS011;8829;47.932;7.810;2022-08-07T09:12:28;2.27;;;1.13;;
17422;SDS011;8829;47.932;7.810;2022-08-07T09:15:09;1.93;;;1.10;;
17422;SDS011;8829;47.932;7.810;2022-08-07T09:17:47;0.80;;;0.80;;
17422;SDS011;8829;47.932;7.810;2022-08-07T09:20:26;2.50;;;1.10;;
17422;SDS011;8829;47.932;7.810;2022-08-07T09:23:01;4.37;;;1.17;;
17422;SDS011;8829;47.932;7.810;2022-08-07T09:25:38;1.17;;;1.07;;
17422;SDS011;8829;47.932;7.810;2022-08-07T09:28:16;0.93;;;0.87;;
17422;SDS011;8829;47.932;7.810;2022-08-07T09:30:55;1.40;;;1.30;;
17422;SDS011;8829;47.932;7.810;2022-08-07T09:33:36;0.90;;;0.90;;
17422;SDS011;8829;47.932;7.810;2022-08-07T09:36:23;1.43;;;1.00;;
17422;SDS011;8829;47.932;7.810;2022-08-07T09:38:57;1.20;;;1.10;;
17422;SDS011;8829;47.932;7.810;2022-08-07T09:41:33;1.97;;;1.10;;
17422;SDS011;8829;47.932;7.810;2022-08-07T09:44:06;1.27;;;1.10;;
17422;SDS011;8829;47.932;7.810;2022-08-07T09:46:43;1.47;;;1.37;;
17422;SDS011;8829;47.932;7.810;2022-08-07T09:49:27;2.00;;;1.20;;
17422;SDS011;8829;47.932;7.810;2022-08-07T09:52:09;1.67;;;0.80;;
17422;SDS011;8829;47.932;7.810;2022-08-07T09:54:46;1.00;;;1.00;;
17422;SDS011;8829;47.932;7.810;2022-08-07T09:57:22;1.63;;;1.43;;
17422;SDS011;8829;47.932;7.810;2022-08-07T10:00:23;1.60;;;0.90;;
17422;SDS011;8829;47.932;7.810;2022-08-07T10:03:00;1.03;;;0.93;;
17422;SDS011;8829;47.932;7.810;2022-08-07T10:09:05;1.73;;;1.30;;
17422;SDS011;8829;47.932;7.810;2022-08-07T10:11:44;1.13;;;1.00;;
17422;SDS011;8829;47.932;7.810;2022-08-07T10:14:35;1.10;;;0.93;;
17422;SDS011;8829;47.932;7.810;2022-08-07T10:17:23;3.10;;;1.23;;
17422;SDS011;8829;47.932;7.810;2022-08-07T10:20:10;1.50;;;1.03;;
17422;SDS011;8829;47.932;7.810;2022-08-07T10:22:47;1.53;;;1.20;;
17422;SDS011;8829;47.932;7.810;2022-08-07T10:25:29;1.23;;;1.00;;
17422;SDS011;8829;47.932;7.810;2022-08-07T10:28:19;1.07;;;1.07;;
17422;SDS011;8829;47.932;7.810;2022-08-07T10:31:04;0.97;;;0.90;;
17422;SDS011;8829;47.932;7.810;2022-08-07T10:33:50;2.50;;;0.87;;
17422;SDS011;8829;47.932;7.810;2022-08-07T10:36:26;0.90;;;0.90;;
17422;SDS011;8829;47.932;7.810;2022-08-07T10:39:04;3.03;;;1.17;;
17422;SDS011;8829;47.932;7.810;2022-08-07T10:41:38;0.80;;;0.80;;
17422;SDS011;8829;47.932;7.810;2022-08-07T10:44:11;0.90;;;0.90;;
17422;SDS011;8829;47.932;7.810;2022-08-07T10:46:45;0.90;;;0.90;;
17422;SDS011;8829;47.932;7.810;2022-08-07T10:49:22;1.00;;;1.00;;
17422;SDS011;8829;47.932;7.810;2022-08-07T10:51:56;0.80;;;0.80;;
17422;SDS011;8829;47.932;7.810;2022-08-07T10:54:31;1.00;;;1.00;;
17422;SDS011;8829;47.932;7.810;2022-08-07T10:57:07;1.17;;;1.07;;
17422;SDS011;8829;47.932;7.810;2022-08-07T10:59:56;2.33;;;1.20;;
17422;SDS011;8829;47.932;7.810;2022-08-07T11:02:30;1.80;;;1.33;;
17422;SDS011;8829;47.932;7.810;2022-08-07T11:05:12;1.20;;;1.10;;
17422;SDS011;8829;47.932;7.810;2022-08-07T11:07:49;2.13;;;1.00;;
17422;SDS011;8829;47.932;7.810;2022-08-07T11:10:23;1.10;;;1.10;;
17422;SDS011;8829;47.932;7.810;2022-08-07T11:12:56;0.90;;;0.90;;
17422;SDS011;8829;47.932;7.810;2022-08-07T11:15:29;2.93;;;1.00;;
17422;SDS011;8829;47.932;7.810;2022-08-07T11:18:02;1.83;;;0.90;;
17422;SDS011;8829;47.932;7.810;2022-08-07T11:20:36;1.67;;;1.20;;
17422;SDS011;8829;47.932;7.810;2022-08-07T11:23:10;2.13;;;0.90;;
17422;SDS011;8829;47.932;7.810;2022-08-07T11:25:44;0.93;;;0.93;;
17422;SDS011;8829;47.932;7.810;2022-08-07T11:28:18;4.00;;;1.23;;
17422;SDS011;8829;47.932;7.810;2022-08-07T11:30:52;3.20;;;1.30;;
17422;SDS011;8829;47.932;7.810;2022-08-07T11:33:25;0.97;;;0.97;;
17422;SDS011;8829;47.932;7.810;2022-08-07T11:36:05;1.23;;;1.10;;
17422;SDS011;8829;47.932;7.810;2022-08-07T11:38:39;1.80;;;1.17;;
17422;SDS011;8829;47.932;7.810;2022-08-07T11:41:16;0.90;;;0.90;;
17422;SDS011;8829;47.932;7.810;2022-08-07T11:43:49;1.90;;;1.00;;
17422;SDS011;8829;47.932;7.810;2022-08-07T11:52:44;0.93;;;0.93;;
17422;SDS011;8829;47.932;7.810;2022-08-07T11:55:24;0.90;;;0.90;;
17422;SDS011;8829;47.932;7.810;2022-08-07T11:58:01;1.40;;;1.30;;
17422;SDS011;8829;47.932;7.810;2022-08-07T12:00:37;1.20;;;1.00;;
17422;SDS011;8829;47.932;7.810;2022-08-07T12:03:17;3.23;;;1.20;;
17422;SDS011;8829;47.932;7.810;2022-08-07T12:06:21;1.83;;;0.80;;
17422;SDS011;8829;47.932;7.810;2022-08-07T12:09:00;1.83;;;1.23;;
17422;SDS011;8829;47.932;7.810;2022-08-07T12:11:54;1.17;;;1.10;;
17422;SDS011;8829;47.932;7.810;2022-08-07T12:14:26;0.90;;;0.90;;
17422;SDS011;8829;47.932;7.810;2022-08-07T12:16:57;1.23;;;1.10;;
17422;SDS011;8829;47.932;7.810;2022-08-07T12:19:30;2.67;;;1.27;;
17422;SDS011;8829;47.932;7.810;2022-08-07T12:22:03;1.10;;;1.10;;
17422;SDS011;8829;47.932;7.810;2022-08-07T12:24:38;2.00;;;1.00;;
17422;SDS011;8829;47.932;7.810;2022-08-07T12:27:26;1.07;;;0.83;;
17422;SDS011;8829;47.932;7.810;2022-08-07T12:29:59;2.20;;;1.20;;
17422;SDS011;8829;47.932;7.810;2022-08-07T12:32:30;1.50;;;1.00;;
17422;SDS011;8829;47.932;7.810;2022-08-07T12:35:03;1.10;;;1.10;;
17422;SDS011;8829;47.932;7.810;2022-08-07T12:37:34;3.40;;;1.10;;
17422;SDS011;8829;47.932;7.810;2022-08-07T12:40:06;1.17;;;0.90;;
17422;SDS011;8829;47.932;7.810;2022-08-07T12:42:34;1.00;;;1.00;;
17422;SDS011;8829;47.932;7.810;2022-08-07T12:45:04;1.80;;;1.10;;
17422;SDS011;8829;47.932;7.810;2022-08-07T12:47:37;3.90;;;1.00;;
17422;SDS011;8829;47.932;7.810;2022-08-07T12:50:11;1.03;;;1.03;;
17422;SDS011;8829;47.932;7.810;2022-08-07T12:52:46;2.70;;;1.10;;
17422;SDS011;8829;47.932;7.810;2022-08-07T12:55:20;1.20;;;1.20;;
17422;SDS011;8829;47.932;7.810;2022-08-07T12:57:50;1.07;;;0.93;;
17422;SDS011;8829;47.932;7.810;2022-08-07T13:00:19;4.27;;;1.30;;
17422;SDS011;8829;47.932;7.810;2022-08-07T13:02:58;1.53;;;1.20;;
17422;SDS011;8829;47.932;7.810;2022-08-07T13:05:50;1.10;;;1.00;;
17422;SDS011;8829;47.932;7.810;2022-08-07T13:08:28;1.07;;;1.03;;
17422;SDS011;8829;47.932;7.810;2022-08-07T13:11:14;1.13;;;1.00;;
17422;SDS011;8829;47.932;7.810;2022-08-07T13:13:55;1.17;;;1.13;;
17422;SDS011;8829;47.932;7.810;2022-08-07T13:16:30;2.17;;;0.97;;
17422;SDS011;8829;47.932;7.810;2022-08-07T13:19:07;1.13;;;1.03;;
17422;SDS011;8829;47.932;7.810;2022-08-07T13:21:44;1.03;;;1.00;;
17422;SDS011;8829;47.932;7.810;2022-08-07T13:24:17;1.27;;;1.10;;
17422;SDS011;8829;47.932;7.810;2022-08-07T13:26:53;1.17;;;1.07;;
17422;SDS011;8829;47.932;7.810;2022-08-07T13:29:25;1.60;;;1.20;;
17422;SDS011;8829;47.932;7.810;2022-08-07T13:32:00;1.10;;;1.10;;
17422;SDS011;8829;47.932;7.810;2022-08-07T13:34:34;1.00;;;1.00;;
17422;SDS011;8829;47.932;7.810;2022-08-07T13:37:07;0.90;;;0.90;;
17422;SDS011;8829;47.932;7.810;2022-08-07T13:39:46;0.87;;;0.80;;
17422;SDS011;8829;47.932;7.810;2022-08-07T13:42:23;1.00;;;0.90;;
17422;SDS011;8829;47.932;7.810;2022-08-07T13:44:51;1.20;;;1.10;;
17422;SDS011;8829;47.932;7.810;2022-08-07T13:47:19;1.00;;;1.00;;
17422;SDS011;8829;47.932;7.810;2022-08-07T13:49:51;1.00;;;0.90;;
17422;SDS011;8829;47.932;7.810;2022-08-07T13:52:23;1.07;;;0.97;;
17422;SDS011;8829;47.932;7.810;2022-08-07T13:54:51;1.20;;;1.20;;
17422;SDS011;8829;47.932;7.810;2022-08-07T13:57:24;1.20;;;1.10;;
17422;SDS011;8829;47.932;7.810;2022-08-07T13:59:53;1.20;;;1.10;;
17422;SDS011;8829;47.932;7.810;2022-08-07T14:02:24;1.20;;;1.20;;
17422;SDS011;8829;47.932;7.810;2022-08-07T14:04:53;1.10;;;1.00;;
17422;SDS011;8829;47.932;7.810;2022-08-07T14:07:30;0.80;;;0.80;;
17422;SDS011;8829;47.932;7.810;2022-08-07T14:10:03;0.93;;;0.93;;
17422;SDS011;8829;47.932;7.810;2022-08-07T14:12:35;0.90;;;0.90;;
17422;SDS011;8829;47.932;7.810;2022-08-07T14:15:15;1.10;;;1.00;;
17422;SDS011;8829;47.932;7.810;2022-08-07T14:17:45;1.20;;;1.10;;
17422;SDS011;8829;47.932;7.810;2022-08-07T14:20:15;1.10;;;1.10;;
17422;SDS011;8829;47.932;7.810;2022-08-07T14:22:45;1.00;;;1.00;;
17422;SDS011;8829;47.932;7.810;2022-08-07T14:25:17;0.70;;;0.70;;
17422;SDS011;8829;47.932;7.810;2022-08-07T14:27:53;0.70;;;0.70;;
17422;SDS011;8829;47.932;7.810;2022-08-07T14:30:21;0.90;;;0.90;;
17422;SDS011;8829;47.932;7.810;2022-08-07T14:32:53;5.40;;;0.90;;
17422;SDS011;8829;47.932;7.810;2022-08-07T14:35:21;2.30;;;1.23;;
17422;SDS011;8829;47.932;7.810;2022-08-07T14:37:50;0.90;;;0.90;;
17422;SDS011;8829;47.932;7.810;2022-08-07T14:40:19;1.20;;;1.10;;
17422;SDS011;8829;47.932;7.810;2022-08-07T14:42:52;1.07;;;0.80;;
17422;SDS011;8829;47.932;7.810;2022-08-07T14:45:22;0.90;;;0.90;;
17422;SDS011;8829;47.932;7.810;2022-08-07T14:47:51;1.10;;;1.00;;
17422;SDS011;8829;47.932;7.810;2022-08-07T14:50:20;1.27;;;0.70;;
17422;SDS011;8829;47.932;7.810;2022-08-07T14:52:50;0.80;;;0.80;;
17422;SDS011;8829;47.932;7.810;2022-08-07T14:55:19;1.03;;;0.90;;
17422;SDS011;8829;47.932;7.810;2022-08-07T14:57:48;2.00;;;1.17;;
17422;SDS011;8829;47.932;7.810;2022-08-07T15:00:21;1.10;;;0.90;;
17422;SDS011;8829;47.932;7.810;2022-08-07T15:02:51;1.60;;;1.10;;
17422;SDS011;8829;47.932;7.810;2022-08-07T15:05:21;0.80;;;0.80;;
17422;SDS011;8829;47.932;7.810;2022-08-07T15:07:49;0.77;;;0.77;;
17422;SDS011;8829;47.932;7.810;2022-08-07T15:10:17;1.90;;;1.10;;
17422;SDS011;8829;47.932;7.810;2022-08-07T15:12:45;0.70;;;0.70;;
17422;SDS011;8829;47.932;7.810;2022-08-07T15:15:22;1.10;;;1.00;;
17422;SDS011;8829;47.932;7.810;2022-08-07T15:17:57;1.47;;;1.00;;
17422;SDS011;8829;47.932;7.810;2022-08-07T15:20:27;1.05;;;0.70;;
17422;SDS011;8829;47.932;7.810;2022-08-07T15:23:01;1.07;;;1.00;;
17422;SDS011;8829;47.932;7.810;2022-08-07T15:25:31;1.63;;;0.80;;
17422;SDS011;8829;47.932;7.810;2022-08-07T15:28:00;1.07;;;0.70;;
17422;SDS011;8829;47.932;7.810;2022-08-07T15:30:30;0.83;;;0.80;;
17422;SDS011;8829;47.932;7.810;2022-08-07T15:33:00;0.80;;;0.80;;
17422;SDS011;8829;47.932;7.810;2022-08-07T15:35:29;0.90;;;0.90;;
17422;SDS011;8829;47.932;7.810;2022-08-07T15:37:59;0.73;;;0.70;;